• Join FlightAware (Why Join?)
  • Login
  • US Flag 
05:02AM EDT


 

Airport Tracker/Info


-or-


 

Live Flight TrackerFlight Track Log ✈ A6-EWE ✈ 10-Apr-2013 ✈ OMDB / DXB - KSEA

Flight Track Log - Related Links

Times and Time Zones

All times are in EDT time to prevent confusion due to time zone crossing. See the A6-EWE flight status page for this flight to view local times or setup timezone preferences in your user account.

Time Position Orientation Groundspeed Altitude Reporting Facility
EDT Latitude Longitude Course Direction KTS MPH feet Rate Location/Type
02:21AM 25.2690 55.3430 302° West 201 231 700  Level FlightAware
02:22AM 25.2850 55.3130 301° West 212 244 1,800 1,920 Climbing FlightAware
02:22AM 25.2890 55.3060 302° West 222 255 2,000 1,500 Climbing FlightAware
02:22AM 25.3110 55.2790 312° West 251 289 2,800 1,740 Climbing FlightAware
02:23AM 25.3390 55.2610 330° Northwest 273 314 3,600 2,100 Climbing FlightAware
02:23AM 25.3540 55.2520 332° Northwest 277 319 4,200 2,400 Climbing FlightAware
02:23AM 25.3810 55.2360 332° Northwest 284 327 5,200 1,260 Climbing FlightAware
02:24AM 25.4120 55.2180 332° Northwest 284 327 5,400 1,500 Climbing FlightAware
02:24AM 25.4380 55.2190 North 318 366 6,200 2,400 Climbing FlightAware
02:24AM 25.4720 55.2390 28° Northeast 351 404 6,800 2,160 Climbing FlightAware
02:25AM 25.5150 55.2750 37° Northeast 365 420 8,200 2,460 Climbing FlightAware
02:26AM 25.5570 55.3170 42° Northeast 377 434 9,500 2,280 Climbing FlightAware
02:26AM 25.6220 55.3900 45° Northeast 388 447 11,700 2,400 Climbing FlightAware
02:27AM 25.6680 55.4400 44° Northeast 394 453 13,100 900 Climbing FlightAware
02:28AM 25.7330 55.5120 45° Northeast 394 453 13,100 60 Level FlightAware
05:46AM 52.1380 63.3290 11° North 504 580 33,000 60 Climbing FlightAware
05:47AM 52.2260 63.3490 North 507 583 33,000  Level FlightAware
05:48AM 52.3200 63.3680 North 506 582 33,000  Level FlightAware
05:48AM 52.4110 63.3860 North 506 582 33,000  Level FlightAware
05:49AM 52.4900 63.4020 North 506 582 33,000  Level FlightAware
05:50AM 52.6210 63.4290 North 504 580 33,000  Level FlightAware
05:51AM 52.7400 63.4530 North 506 582 33,000  Level FlightAware
05:51AM 52.8190 63.4700 North 506 582 33,000  Level FlightAware
05:52AM 52.9070 63.4880 North 508 585 33,000  Level FlightAware
05:53AM 53.0310 63.5140 North 508 585 33,000  Level FlightAware
05:53AM 53.1230 63.5330 North 509 586 33,000  Level FlightAware
05:54AM 53.2200 63.5620 10° North 518 596 33,000  Level FlightAware
05:55AM 53.3190 63.6200 19° North 523 602 33,000  Level FlightAware
05:56AM 53.4480 63.7030 21° North 522 601 33,000  Level FlightAware
05:56AM 53.5350 63.7590 21° North 521 600 33,000  Level FlightAware
05:57AM 53.6360 63.8230 21° North 521 600 33,000  Level FlightAware
05:58AM 53.7260 63.8810 21° North 521 600 33,000  Level FlightAware
05:58AM 53.8230 63.9430 21° North 520 598 33,000  Level FlightAware
05:59AM 53.9150 64.0030 21° North 520 598 33,000  Level FlightAware
06:00AM 54.0160 64.0690 21° North 520 598 33,000  Level FlightAware
06:01AM 54.1010 64.1250 21° North 521 600 33,000  Level FlightAware
06:01AM 54.1900 64.1830 21° North 520 598 33,000  Level FlightAware
06:02AM 54.2710 64.2370 21° North 520 598 33,000  Level FlightAware
06:03AM 54.3700 64.3160 25° Northeast 527 606 33,000  Level FlightAware
06:03AM 54.4760 64.4180 29° Northeast 528 608 33,000  Level FlightAware
06:04AM 54.5550 64.4960 30° Northeast 529 609 33,000  Level FlightAware
06:04AM 54.6170 64.5560 29° Northeast 528 608 33,000  Level FlightAware
06:05AM 54.7110 64.6490 30° Northeast 529 609 33,000  Level FlightAware
06:06AM 54.8060 64.7430 30° Northeast 528 608 33,000  Level FlightAware
06:07AM 54.8890 64.8260 30° Northeast 529 609 33,000  Level FlightAware
06:07AM 54.9780 64.9140 30° Northeast 529 609 33,000  Level FlightAware
06:08AM 55.0750 65.0120 30° Northeast 528 608 33,000  Level FlightAware
06:09AM 55.1620 65.0980 29° Northeast 528 608 33,000  Level FlightAware
06:09AM 55.2520 65.1890 30° Northeast 528 608 33,000  Level FlightAware
06:10AM 55.3350 65.2730 30° Northeast 529 609 33,000  Level FlightAware
06:12AM 55.5390 65.4130 21° North 495 570 33,000  Level FlightAware
06:12AM 55.6130 65.4110 359° North 488 562 33,000  Level FlightAware
06:13AM 55.7140 65.4070 359° North 485 558 33,000  Level FlightAware
06:14AM 55.8000 65.4030 359° North 484 557 33,000  Level FlightAware
06:14AM 55.8960 65.3990 359° North 484 557 33,000  Level FlightAware
06:15AM 55.9890 65.3960 359° North 485 558 33,000  Level FlightAware
06:16AM 56.0800 65.3910 358° North 484 557 33,000  Level FlightAware
06:16AM 56.1830 65.3830 358° North 484 557 33,000  Level FlightAware
06:17AM 56.2660 65.3770 358° North 485 558 33,000  Level FlightAware
06:18AM 56.4000 65.3670 358° North 484 557 33,000  Level FlightAware
06:19AM 56.4910 65.3610 358° North 482 555 33,000  Level FlightAware
06:19AM 56.5850 65.3540 358° North 480 552 33,000  Level FlightAware
06:20AM 56.6620 65.3490 358° North 481 554 33,000  Level FlightAware
06:21AM 56.7530 65.3420 358° North 480 552 33,000  Level FlightAware
06:22AM 56.8610 65.3350 358° North 482 555 33,000  Level FlightAware
06:22AM 56.9570 65.3290 358° North 484 557 33,000  Level FlightAware
06:23AM 57.0330 65.3240 358° North 484 557 33,000  Level FlightAware
06:24AM 57.1340 65.3180 358° North 483 556 33,000  Level FlightAware
06:24AM 57.2100 65.3310 North 499 574 33,000  Level FlightAware
06:25AM 57.3110 65.3640 10° North 503 579 33,000  Level FlightAware
06:26AM 57.4310 65.4100 12° North 503 579 33,000  Level FlightAware
06:26AM 57.5110 65.4390 11° North 502 578 33,000  Level FlightAware
06:27AM 57.6000 65.4720 11° North 502 578 33,000  Level FlightAware
06:29AM 57.5110 65.4390 191° South 507 583 33,000  Level FlightAware
06:29AM 57.9150 65.5890 11° North 505 581 33,000  Level FlightAware
06:30AM 58.0080 65.6180 North 499 574 33,000  Level FlightAware
06:31AM 58.1550 65.6460 North 495 570 33,000  Level FlightAware
06:32AM 58.2460 65.6620 North 492 566 33,000  Level FlightAware
06:33AM 58.3420 65.6780 North 491 565 33,000  Level FlightAware
06:33AM 58.4730 65.7020 North 490 564 33,000  Level FlightAware
06:34AM 58.5980 65.7260 North 492 566 33,000  Level FlightAware
06:35AM 58.6880 65.7420 North 492 566 33,000  Level FlightAware
06:36AM 58.7820 65.7600 North 497 572 33,000  Level FlightAware
06:36AM 58.8770 65.7770 North 498 573 33,000  Level FlightAware
06:44AM 59.9000 65.9380 North 33,000  Level FlightAware
06:45AM 59.9830 65.9410 North 482 555 33,000  Level FlightAware
06:45AM 60.0740 65.9440 North 482 555 33,000  Level FlightAware
06:46AM 59.9830 65.9410 181° South 474 545 33,000  Level FlightAware
06:46AM 60.2080 65.9480 North 475 547 33,000  Level FlightAware
06:47AM 60.2810 65.9510 North 475 547 33,000  Level FlightAware
06:51AM 60.8880 65.9720 North 467 537 33,000  Level FlightAware
06:53AM 60.9650 65.9750 North 467 537 33,000  Level FlightAware
06:53AM 60.9120 65.9730 181° South 471 542 33,000  Level FlightAware
06:54AM 61.2350 65.9850 North 472 543 33,000  Level FlightAware
06:55AM 61.3400 65.9890 North 476 548 33,000  Level FlightAware
06:56AM 61.4300 65.9920 North 476 548 33,000  Level FlightAware
06:56AM 61.5220 65.9950 North 478 550 33,000  Level FlightAware
06:57AM 61.6290 66.0000 North 479 551 33,000  Level FlightAware
06:58AM 61.6950 66.0020 North 479 551 33,000  Level FlightAware
06:59AM 61.8310 66.0070 North 479 551 33,000  Level FlightAware
07:00AM 61.7630 66.0050 181° South 478 550 33,000  Level FlightAware
07:01AM 62.0930 66.0170 North 476 548 33,000 60 Level FlightAware
07:12AM 63.6090 66.6520 11° North 34,000 60 Climbing FlightAware
07:13AM 63.6830 66.6880 12° North 478 550 34,000  Level FlightAware
07:14AM 63.8060 66.6950 North 471 542 34,000  Level FlightAware
07:14AM 63.8940 66.6910 359° North 471 542 34,000  Level FlightAware
07:15AM 63.9970 66.6870 359° North 470 541 34,000  Level FlightAware
07:16AM 64.0830 66.6840 359° North 469 540 34,000  Level FlightAware
07:17AM 64.1740 66.6810 359° North 470 541 34,000  Level FlightAware
07:17AM 64.2590 66.6790 359° North 471 542 34,000  Level FlightAware
07:18AM 64.3480 66.6770 359° North 473 544 34,000  Level FlightAware
07:19AM 64.4340 66.6750 359° North 472 543 34,000  Level FlightAware
07:19AM 64.5380 66.6720 359° North 471 542 34,000  Level FlightAware
07:20AM 64.6170 66.6700 359° North 470 541 34,000  Level FlightAware
07:21AM 64.7020 66.6680 359° North 471 542 34,000  Level FlightAware
07:21AM 64.7990 66.6650 359° North 470 541 34,000  Level FlightAware
07:22AM 64.9080 66.6620 359° North 472 543 34,000  Level FlightAware
07:23AM 64.9960 66.6600 359° North 471 542 34,000  Level FlightAware
07:24AM 65.0940 66.6570 359° North 471 542 34,000  Level FlightAware
07:24AM 65.1790 66.6530 359° North 471 542 34,000  Level FlightAware
07:25AM 65.2700 66.6510 359° North 472 543 34,000  Level FlightAware
07:26AM 65.3560 66.6490 359° North 472 543 34,000  Level FlightAware
07:26AM 65.4460 66.6460 359° North 472 543 34,000  Level FlightAware
07:27AM 65.5500 66.6430 359° North 474 545 34,000  Level FlightAware
07:28AM 65.6370 66.6400 359° North 475 547 34,000  Level FlightAware
07:29AM 65.7270 66.6370 359° North 475 547 34,000  Level FlightAware
07:29AM 65.8150 66.6340 359° North 475 547 34,000  Level FlightAware
07:30AM 65.9020 66.6310 359° North 476 548 34,000  Level FlightAware
07:31AM 65.9910 66.6280 359° North 476 548 34,000  Level FlightAware
07:31AM 66.1050 66.6240 359° North 476 548 34,000  Level FlightAware
07:32AM 66.1840 66.6220 359° North 477 549 34,000  Level FlightAware
07:33AM 66.2750 66.6180 359° North 477 549 34,000  Level FlightAware
07:33AM 66.3610 66.6150 359° North 482 555 34,000  Level FlightAware
07:34AM 66.4520 66.6120 359° North 486 559 34,000  Level FlightAware
07:35AM 66.5620 66.6090 359° North 482 555 34,000  Level FlightAware
07:36AM 66.6850 66.6110 360° North 480 552 34,000  Level FlightAware
07:36AM 66.7730 66.6170 North 484 557 34,000  Level FlightAware
07:37AM 66.8630 66.6230 North 478 550 34,000  Level FlightAware
07:38AM 66.9540 66.6270 North 473 544 34,000  Level FlightAware
07:39AM 67.0570 66.6320 North 474 545 34,000  Level FlightAware
07:39AM 67.1420 66.6350 North 476 548 34,000  Level FlightAware
07:40AM 67.2170 66.6390 North 476 548 34,000  Level FlightAware
11:13AM 85.0000 -85.0000 218° Southwest 455 524 36,000  Climbing ETMS Enhanced Traffic Management System
11:57AM 80.0000 -105.0000 195° South 448 516 36,000  Level ETMS Enhanced Traffic Management System
12:49PM 75.0000 -110.0000 199° South 458 527 36,000  Level ETMS Enhanced Traffic Management System
02:12PM 63.5000 -120.0833 199° South 460 529 38,000  Climbing Edmonton Center
02:13PM 63.3833 -120.1833 201° Southwest 460 529 38,000  Level Edmonton Center
02:14PM 63.2333 -120.2500 191° South 460 529 38,000 120 Level Edmonton Center
02:15PM 63.1333 -120.3167 197° South 460 529 38,300 360 Climbing Edmonton Center
02:16PM 63.0000 -120.4000 196° South 450 518 38,800 300 Climbing Edmonton Center
02:17PM 62.8667 -120.4833 196° South 460 529 39,000 60 Climbing Edmonton Center
02:18PM 62.7500 -120.5667 198° South 460 529 39,000  Level Edmonton Center
02:19PM 62.6333 -120.6167 358° North 470 541 39,000  Level Edmonton Center
02:20PM 62.5000 -120.7000 196° South 470 541 39,000  Level Edmonton Center
02:21PM 62.3833 -120.7833 198° South 450 518 39,000  Level Edmonton Center
02:22PM 62.2500 -120.8333 190° South 440 506 39,000  Level Edmonton Center
02:23PM 62.1500 -120.9167 201° Southwest 440 506 39,000  Level Edmonton Center
02:24PM 62.0167 -120.9667 190° South 440 506 39,000  Level Edmonton Center
02:25PM 61.9000 -121.0500 199° South 450 518 39,000  Level Edmonton Center
02:26PM 61.7667 -121.1333 196° South 440 506 39,000  Level Edmonton Center
02:27PM 61.6500 -121.1667 188° South 440 506 39,000  Level Edmonton Center
02:28PM 61.5333 -121.2500 199° South 440 506 39,000  Level Edmonton Center
02:29PM 61.4167 -121.3333 199° South 450 518 39,000  Level Edmonton Center
02:30PM 61.2833 -121.3833 190° South 450 518 39,000  Level Edmonton Center
02:31PM 61.1667 -121.4667 199° South 450 518 39,000  Level Edmonton Center
02:32PM 61.0500 -121.5000 188° South 450 518 39,000  Level Edmonton Center
02:33PM 60.9167 -121.5833 197° South 450 518 39,000  Level Edmonton Center
02:34PM 60.8000 -121.6667 199° South 460 529 39,000  Level Edmonton Center
02:35PM 60.6667 -121.7000 187° South 450 518 39,000  Level Edmonton Center
02:36PM 60.5500 -121.7833 199° South 440 506 39,000  Level Edmonton Center
02:37PM 60.4500 -121.8333 194° South 430 495 39,000  Level Edmonton Center
02:39PM 60.3160 -121.8942 193° South  Level FlightAware Approximate
02:46PM 59.4220 -122.2878 193° South  Level FlightAware Approximate
02:47PM 59.2942 -122.3424 192° South  Level FlightAware Approximate
02:48PM 59.1664 -122.3965 192° South  Level FlightAware Approximate
02:49PM 59.0385 -122.4502 192° South  Level FlightAware Approximate
02:50PM 58.9106 -122.5035 192° South  Level FlightAware Approximate
02:51PM 58.7827 -122.5564 192° South  Level FlightAware Approximate
02:51PM 58.7000 -122.3333 192° South 480 552 39,000  Level Edmonton Center
02:52PM 58.6548 -122.6090 192° South  Level FlightAware Approximate
02:52PM 58.5667 -122.3667 187° South 460 529 39,000  Level Edmonton Center
02:53PM 58.5269 -122.6611 192° South  Level FlightAware Approximate
02:53PM 58.4500 -122.4000 189° South 450 518 39,000  Level Edmonton Center
02:54PM 58.3989 -122.7129 192° South  Level FlightAware Approximate
02:54PM 58.3167 -122.4333 187° South 450 518 39,000  Level Edmonton Center
02:55PM 58.2710 -122.7643 192° South  Level FlightAware Approximate
02:55PM 58.2000 -122.4500 184° South 450 518 39,000  Level Edmonton Center
02:56PM 58.1429 -122.8154 192° South  Level FlightAware Approximate
02:56PM 58.0667 -122.4833 188° South 450 518 39,000  Level Edmonton Center
02:57PM 58.0149 -122.8660 192° South  Level FlightAware Approximate
02:57PM 57.9500 -122.5167 189° South 460 529 39,000  Level Edmonton Center
02:58PM 57.8167 -122.5500 188° South 460 529 39,000  Level Edmonton Center
02:59PM 57.7000 -122.5500 180° South 460 529 39,000  Level Edmonton Center
03:00PM 57.5667 -122.5833 188° South 450 518 39,000  Level Edmonton Center
03:01PM 57.4333 -122.6167 188° South 450 518 39,000  Level Edmonton Center
03:02PM 57.3167 -122.6167 180° South 460 529 39,000  Level Edmonton Center
03:03PM 57.1667 -122.6500 187° South 460 529 39,000  Level Edmonton Center
03:04PM 57.0667 -122.6833 190° South 460 529 39,000  Level Edmonton Center
03:05PM 56.9167 -122.7167 187° South 460 529 39,000  Level Edmonton Center
03:06PM 56.8000 -122.7167 180° South 460 529 39,000  Level Edmonton Center
03:07PM 56.6667 -122.7500 188° South 460 529 39,000  Level Edmonton Center
03:08PM 56.5500 -122.7833 189° South 460 529 39,000  Level Edmonton Center
03:09PM 56.4000 -122.8000 184° South 460 529 39,000  Level Edmonton Center
03:10PM 56.3000 -122.8167 185° South 450 518 39,000  Level Edmonton Center
03:11PM 56.1667 -122.8500 188° South 460 529 39,000  Level Edmonton Center
03:12PM 56.0333 -122.8833 188° South 450 518 39,000  Level Edmonton Center
03:13PM 55.9167 -122.8833 180° South 460 529 39,000  Level Edmonton Center
03:14PM 55.7667 -122.9000 184° South 460 529 39,000  Level Edmonton Center
03:15PM 55.6500 -122.9333 189° South 460 529 39,000  Level Edmonton Center
03:16PM 55.5167 -122.9667 188° South 460 529 39,000  Level Edmonton Center
03:17PM 55.5167 -122.9167 90° East 460 529 39,000  Level Vancouver Center
03:18PM 55.3833 -122.9500 188° South 460 529 39,000  Level Vancouver Center
03:19PM 55.2667 -122.9500 180° South 460 529 39,000  Level Vancouver Center
03:20PM 55.1333 -122.9833 188° South 460 529 39,000  Level Vancouver Center
03:21PM 55.0000 -123.0167 188° South 460 529 39,000  Level Vancouver Center
03:22PM 54.8833 -123.0167 180° South 460 529 39,000  Level Vancouver Center
03:23PM 54.7500 -123.0167 180° South 460 529 39,000  Level Vancouver Center
03:24PM 54.6167 -123.0167 180° South 460 529 39,000  Level Vancouver Center
03:25PM 54.4833 -123.0167 180° South 460 529 39,000  Level Vancouver Center
03:26PM 54.3667 -123.0167 180° South 460 529 39,000  Level Vancouver Center
03:27PM 54.2333 -123.0333 184° South 460 529 39,000  Level Vancouver Center
03:28PM 54.1000 -123.0333 180° South 460 529 39,000  Level Vancouver Center
03:29PM 53.9833 -123.0333 180° South 470 541 39,000  Level Vancouver Center
03:30PM 53.8500 -123.0333 180° South 470 541 39,000  Level Vancouver Center
03:31PM 53.7167 -123.0333 180° South 470 541 39,000  Level Vancouver Center
03:32PM 53.6000 -123.0333 180° South 450 518 39,000  Level Vancouver Center
03:33PM 53.4500 -123.0333 180° South 470 541 39,000  Level Vancouver Center
03:34PM 53.3333 -123.0500 185° South 470 541 39,000  Level Vancouver Center
03:35PM 53.2000 -123.0500 180° South 470 541 39,000  Level Vancouver Center
03:36PM 53.0667 -123.0500 180° South 470 541 39,000  Level Vancouver Center
03:37PM 52.9500 -123.0500 180° South 470 541 39,000  Level Vancouver Center
03:38PM 52.7833 -123.0500 180° South 470 541 39,000  Level Vancouver Center
03:39PM 52.6667 -123.0500 180° South 470 541 39,000  Level Vancouver Center
03:40PM 52.5333 -123.0500 180° South 470 541 39,000  Level Vancouver Center
03:41PM 52.4000 -123.0667 184° South 470 541 39,000  Level Vancouver Center
03:42PM 52.2667 -123.0667 180° South 470 541 39,000  Level Vancouver Center
03:43PM 52.1500 -123.0667 180° South 470 541 39,000  Level Vancouver Center
03:44PM 52.0167 -123.0667 180° South 470 541 39,000  Level Vancouver Center
03:45PM 51.8833 -123.0667 180° South 470 541 39,000  Level Vancouver Center
03:46PM 51.7500 -123.0667 180° South 470 541 39,000  Level Vancouver Center
03:47PM 51.6167 -123.0667 180° South 470 541 39,000  Level Vancouver Center
03:53PM 50.8650 -123.1080 180° South 465 535 39,000  Level FlightAware
03:53PM 50.7890 -123.1100 181° South 466 536 39,000  Level FlightAware
03:54PM 50.6980 -123.1120 181° South 467 537 39,000  Level FlightAware
03:55PM 50.6030 -123.1140 181° South 468 539 39,000  Level FlightAware
03:55PM 50.5140 -123.1160 181° South 470 541 39,000  Level FlightAware
03:56PM 50.4150 -123.1190 181° South 471 542 39,000  Level FlightAware
03:57PM 50.3330 -123.1210 181° South 472 543 39,000  Level FlightAware
03:58PM 50.2310 -123.1230 181° South 472 543 39,000  Level FlightAware
03:58PM 50.1430 -123.1250 181° South 472 543 39,000  Level FlightAware
03:59PM 50.0570 -123.1270 181° South 472 543 39,000  Level FlightAware
04:00PM 49.9570 -123.1290 181° South 472 543 39,000  Level FlightAware
04:00PM 49.8740 -123.1310 181° South 472 543 39,000 -180 Level FlightAware
04:01PM 49.7760 -123.1330 181° South 470 541 38,800 -960 Descending FlightAware
04:02PM 49.6870 -123.1350 181° South 464 534 37,700 -1,740 Descending FlightAware
04:02PM 49.6040 -123.1370 181° South 455 524 36,500 -1,920 Descending FlightAware
04:03PM 49.5060 -123.1390 181° South 435 501 35,000 -2,280 Descending FlightAware
04:04PM 49.4400 -123.1410 181° South 451 519 33,500 -1,920 Descending FlightAware
04:05PM 49.3430 -123.1430 181° South 448 516 32,500 -1,680 Descending FlightAware
04:06PM 49.1140 -123.1480 181° South 434 499 29,100 -1,860 Descending FlightAware
04:08PM 48.9740 -123.1200 173° South 442 509 26,900 -1,920 Descending FlightAware
04:09PM 48.8340 -123.0780 169° South 426 490 24,700 -1,860 Descending FlightAware
04:10PM 48.6970 -123.0380 169° South 423 487 22,600 -1,800 Descending FlightAware
04:11PM 48.5360 -122.9920 169° South 409 471 20,100 -1,800 Descending FlightAware
04:13PM 48.4090 -122.9550 169° South 390 449 18,100 -1,740 Descending FlightAware
04:14PM 48.2840 -122.9190 169° South 393 452 16,100 -1,740 Descending FlightAware
04:14PM 48.2110 -122.8990 170° South 379 436 15,000 -1,740 Descending FlightAware
04:15PM 48.1310 -122.8760 169° South 373 429 13,700 -1,620 Descending FlightAware
04:16PM 48.0800 -122.8620 170° South 377 434 12,900 -1,560 Descending FlightAware
04:16PM 48.0400 -122.8360 157° South 380 437 12,300 -1,380 Descending FlightAware
04:16PM 48.0200 -122.8090 138° Southeast 372 428 12,100 -1,140 Descending FlightAware
04:17PM 47.9810 -122.7310 127° Southeast 354 407 11,300 -1,320 Descending FlightAware
04:18PM 47.9360 -122.6470 129° Southeast 335 386 10,300 -1,320 Descending FlightAware
04:18PM 47.9120 -122.6020 128° Southeast 315 362 9,800 -1,320 Descending FlightAware
04:19PM 47.8840 -122.5510 129° Southeast 307 353 9,100 -1,140 Descending FlightAware
04:19PM 47.8620 -122.5130 131° Southeast 296 341 8,800 -780 Descending FlightAware
04:19PM 47.8490 -122.4920 133° Southeast 288 331 8,600 -1,500 Descending FlightAware
04:20PM 47.8200 -122.4470 134° Southeast 277 319 7,700 -1,800 Descending FlightAware
04:20PM 47.7960 -122.4220 145° Southeast 279 321 7,000 -1,440 Descending FlightAware
04:21PM 47.7610 -122.3950 153° Southeast 272 313 6,400 -660 Descending FlightAware
04:21PM 47.7260 -122.3660 151° Southeast 256 295 6,300 -1,320 Descending FlightAware
04:22PM 47.6775 -122.3308 151° Southeast 246 283 4,700 -1,800 Descending Seattle Center
04:22PM 47.6594 -122.3178 154° Southeast 233 268 4,500 -900 Descending Seattle Center
04:23PM 47.6214 -122.3075 170° South 215 247 3,800 -1,140 Descending Seattle Center
04:23PM 47.6031 -122.3064 178° South 204 235 3,400 -1,380 Descending Seattle Center
04:24PM 47.5639 -122.3072 181° South 204 235 2,400 -1,380 Descending Seattle Center
04:24PM 47.5392 -122.3086 182° South 198 228 1,900 -900 Descending Seattle Center
04:25PM 47.5161 -122.3075 178° South 189 217 1,500 -840 Descending Seattle Center
04:25PM 47.4944 -122.3072 180° South 159 183 1,100 -720 Descending Seattle Center
04:26PM 47.4775 -122.3081 182° South 141 162 800 -480 Descending Seattle Center
04:27PM 47.4364 -122.3081 180° South 131 151 400 -420 Descending Seattle Center
04:29PM 47.4333 -122.3000 North  Level FlightAware Approximate